TIST/STT METAR and TAF weather

Enter ICAO airport designator
Station Type Date Time Source
TIST METAR 2019/06/18 16:53 UTC NOAA

TIST 181653Z 13015KT 10SM BKN028 OVC040 29/23 A3007 RMK AO2 SLP183 T02940233 $


Station Type Date Time Source
TIST Decoded METAR 2019/06/18 16:53 UTC NOAA

Charlotte Amalie St. Thomas, Cyril E. King Airport, Virgin Islands (TIST) 18-20N 064-59W
Jun 18, 2019 - 12:53 PM EDT / 2019.06.18 1653 UTC
Wind: from the SE (130 degrees) at 17 MPH (15 KT):0
Visibility: 10 mile(s):0
Sky conditions: overcast
Temperature: 84.9 F (29.4 C)
Dew Point: 73.9 F (23.3 C)
Relative Humidity: 69%
Pressure (altimeter): 30.07 in. Hg (1018 hPa)
ob: TIST 181653Z 13015KT 10SM BKN028 OVC040 29/23 A3007 RMK AO2 SLP183 T02940233
cycle: 17

Station Type Date Time Source
TIST TAF 2019/06/18 18:54 UTC NOAA

TAF TIST 181739Z 1818/1918 12015G22KT P6SM SCT025 SCT040
FM182300 09012KT P6SM FEW030
FM190600 08008KT P6SM VCSH SCT025
FM191400 11016KT P6SM FEW030 SCT050

Example: see airport list